sensor_id;sensor_type;location;lat;lon;timestamp;temperature;humidity
15690;DHT22;7945;48.816;11.506;2023-08-01T00:00:15;20.40;99.90
15690;DHT22;7945;48.816;11.506;2023-08-01T00:02:42;20.50;99.90
15690;DHT22;7945;48.816;11.506;2023-08-01T00:05:10;20.50;99.90
15690;DHT22;7945;48.816;11.506;2023-08-01T00:07:38;20.50;99.90
15690;DHT22;7945;48.816;11.506;2023-08-01T00:10:06;20.50;99.90
15690;DHT22;7945;48.816;11.506;2023-08-01T00:12:33;20.50;99.90
15690;DHT22;7945;48.816;11.506;2023-08-01T00:15:00;20.50;99.90
15690;DHT22;7945;48.816;11.506;2023-08-01T00:17:26;20.50;99.90
15690;DHT22;7945;48.816;11.506;2023-08-01T00:19:53;20.50;99.90
15690;DHT22;7945;48.816;11.506;2023-08-01T00:22:21;20.60;99.90
15690;DHT22;7945;48.816;11.506;2023-08-01T00:24:49;20.50;99.90
15690;DHT22;7945;48.816;11.506;2023-08-01T00:27:15;20.40;99.90
15690;DHT22;7945;48.816;11.506;2023-08-01T00:29:42;20.40;99.90
15690;DHT22;7945;48.816;11.506;2023-08-01T00:32:09;20.40;99.90
15690;DHT22;7945;48.816;11.506;2023-08-01T00:34:36;20.30;99.90
15690;DHT22;7945;48.816;11.506;2023-08-01T00:37:03;20.30;99.90
15690;DHT22;7945;48.816;11.506;2023-08-01T00:39:30;20.30;99.90
15690;DHT22;7945;48.816;11.506;2023-08-01T00:41:59;20.30;99.90
15690;DHT22;7945;48.816;11.506;2023-08-01T00:44:25;20.30;99.90
15690;DHT22;7945;48.816;11.506;2023-08-01T00:46:52;20.20;99.90
15690;DHT22;7945;48.816;11.506;2023-08-01T00:49:19;20.20;99.90
15690;DHT22;7945;48.816;11.506;2023-08-01T00:51:47;20.20;99.90
15690;DHT22;7945;48.816;11.506;2023-08-01T00:54:14;20.20;99.90
15690;DHT22;7945;48.816;11.506;2023-08-01T00:56:41;20.20;99.90
15690;DHT22;7945;48.816;11.506;2023-08-01T00:59:09;20.20;99.90
15690;DHT22;7945;48.816;11.506;2023-08-01T01:01:36;20.20;99.90
15690;DHT22;7945;48.816;11.506;2023-08-01T01:04:03;20.20;99.90
15690;DHT22;7945;48.816;11.506;2023-08-01T01:06:33;20.20;99.90
15690;DHT22;7945;48.816;11.506;2023-08-01T01:09:01;20.20;99.90
15690;DHT22;7945;48.816;11.506;2023-08-01T01:11:30;20.10;99.90
15690;DHT22;7945;48.816;11.506;2023-08-01T01:13:57;20.10;99.90
15690;DHT22;7945;48.816;11.506;2023-08-01T01:16:25;20.10;99.90
15690;DHT22;7945;48.816;11.506;2023-08-01T01:18:52;20.10;99.90
15690;DHT22;7945;48.816;11.506;2023-08-01T01:21:20;20.10;99.90
15690;DHT22;7945;48.816;11.506;2023-08-01T01:23:47;20.20;99.90
15690;DHT22;7945;48.816;11.506;2023-08-01T01:26:16;20.20;99.90
15690;DHT22;7945;48.816;11.506;2023-08-01T01:28:46;20.20;99.90
15690;DHT22;7945;48.816;11.506;2023-08-01T01:31:14;20.20;99.90
15690;DHT22;7945;48.816;11.506;2023-08-01T01:33:41;20.20;99.90
15690;DHT22;7945;48.816;11.506;2023-08-01T01:36:08;20.20;99.90
15690;DHT22;7945;48.816;11.506;2023-08-01T01:38:36;20.20;99.90
15690;DHT22;7945;48.816;11.506;2023-08-01T01:41:03;20.20;99.90
15690;DHT22;7945;48.816;11.506;2023-08-01T01:43:30;20.20;99.90
15690;DHT22;7945;48.816;11.506;2023-08-01T01:45:57;20.20;99.90
15690;DHT22;7945;48.816;11.506;2023-08-01T01:48:23;20.20;99.90
15690;DHT22;7945;48.816;11.506;2023-08-01T01:50:50;20.20;99.90
15690;DHT22;7945;48.816;11.506;2023-08-01T01:53:17;20.30;99.90
15690;DHT22;7945;48.816;11.506;2023-08-01T01:55:45;20.20;99.90
15690;DHT22;7945;48.816;11.506;2023-08-01T01:58:12;20.20;99.90
15690;DHT22;7945;48.816;11.506;2023-08-01T02:00:38;20.20;99.90
15690;DHT22;7945;48.816;11.506;2023-08-01T02:03:05;20.20;99.90
15690;DHT22;7945;48.816;11.506;2023-08-01T02:05:35;20.20;99.90
15690;DHT22;7945;48.816;11.506;2023-08-01T02:08:02;20.20;99.90
15690;DHT22;7945;48.816;11.506;2023-08-01T02:10:30;20.20;99.90
15690;DHT22;7945;48.816;11.506;2023-08-01T02:12:58;20.20;99.90
15690;DHT22;7945;48.816;11.506;2023-08-01T02:15:26;20.20;99.90
15690;DHT22;7945;48.816;11.506;2023-08-01T02:17:52;20.20;99.90
15690;DHT22;7945;48.816;11.506;2023-08-01T02:20:19;20.30;99.90
15690;DHT22;7945;48.816;11.506;2023-08-01T02:22:46;20.30;99.90
15690;DHT22;7945;48.816;11.506;2023-08-01T02:25:13;20.30;99.90
15690;DHT22;7945;48.816;11.506;2023-08-01T02:27:39;20.30;99.90
15690;DHT22;7945;48.816;11.506;2023-08-01T02:30:09;20.30;99.90
15690;DHT22;7945;48.816;11.506;2023-08-01T02:32:36;20.30;99.90
15690;DHT22;7945;48.816;11.506;2023-08-01T02:35:04;20.30;99.90
15690;DHT22;7945;48.816;11.506;2023-08-01T02:37:31;20.30;99.90
15690;DHT22;7945;48.816;11.506;2023-08-01T02:39:57;20.20;99.90
15690;DHT22;7945;48.816;11.506;2023-08-01T02:42:24;20.30;99.90
15690;DHT22;7945;48.816;11.506;2023-08-01T02:44:51;20.30;99.90
15690;DHT22;7945;48.816;11.506;2023-08-01T02:47:19;20.30;99.90
15690;DHT22;7945;48.816;11.506;2023-08-01T02:49:46;20.30;99.90
15690;DHT22;7945;48.816;11.506;2023-08-01T02:52:12;20.30;99.90
15690;DHT22;7945;48.816;11.506;2023-08-01T02:54:39;20.30;99.90
15690;DHT22;7945;48.816;11.506;2023-08-01T02:57:06;20.30;99.90
15690;DHT22;7945;48.816;11.506;2023-08-01T02:59:33;20.30;99.90
15690;DHT22;7945;48.816;11.506;2023-08-01T03:02:00;20.30;99.90
15690;DHT22;7945;48.816;11.506;2023-08-01T03:04:28;20.30;99.90
15690;DHT22;7945;48.816;11.506;2023-08-01T03:06:55;20.30;99.90
15690;DHT22;7945;48.816;11.506;2023-08-01T03:09:21;20.30;99.90
15690;DHT22;7945;48.816;11.506;2023-08-01T03:11:48;20.30;99.90
15690;DHT22;7945;48.816;11.506;2023-08-01T03:14:15;20.30;99.90
15690;DHT22;7945;48.816;11.506;2023-08-01T03:16:44;20.30;99.90
15690;DHT22;7945;48.816;11.506;2023-08-01T03:19:11;20.20;99.90
15690;DHT22;7945;48.816;11.506;2023-08-01T03:21:40;20.20;99.90
15690;DHT22;7945;48.816;11.506;2023-08-01T03:24:07;20.30;99.90
15690;DHT22;7945;48.816;11.506;2023-08-01T03:26:34;20.30;99.90
15690;DHT22;7945;48.816;11.506;2023-08-01T03:29:01;20.30;99.90
15690;DHT22;7945;48.816;11.506;2023-08-01T03:31:28;20.30;99.90
15690;DHT22;7945;48.816;11.506;2023-08-01T03:33:55;20.20;99.90
15690;DHT22;7945;48.816;11.506;2023-08-01T03:36:24;20.10;99.90
15690;DHT22;7945;48.816;11.506;2023-08-01T03:38:52;19.90;99.90
15690;DHT22;7945;48.816;11.506;2023-08-01T03:41:19;19.90;99.90
15690;DHT22;7945;48.816;11.506;2023-08-01T03:43:45;19.90;99.90
15690;DHT22;7945;48.816;11.506;2023-08-01T03:46:12;19.80;99.90
15690;DHT22;7945;48.816;11.506;2023-08-01T03:48:39;19.70;99.90
15690;DHT22;7945;48.816;11.506;2023-08-01T03:51:06;19.60;99.90
15690;DHT22;7945;48.816;11.506;2023-08-01T03:53:32;19.50;99.90
15690;DHT22;7945;48.816;11.506;2023-08-01T03:56:00;19.40;99.90
15690;DHT22;7945;48.816;11.506;2023-08-01T03:58:27;19.30;99.90
15690;DHT22;7945;48.816;11.506;2023-08-01T04:00:54;19.50;99.90
15690;DHT22;7945;48.816;11.506;2023-08-01T04:03:21;19.10;99.90
15690;DHT22;7945;48.816;11.506;2023-08-01T04:05:48;19.10;99.90
15690;DHT22;7945;48.816;11.506;2023-08-01T04:08:14;19.10;99.90
15690;DHT22;7945;48.816;11.506;2023-08-01T04:10:41;19.10;99.90
15690;DHT22;7945;48.816;11.506;2023-08-01T04:13:09;19.10;99.90
15690;DHT22;7945;48.816;11.506;2023-08-01T04:15:36;19.10;99.90
15690;DHT22;7945;48.816;11.506;2023-08-01T04:18:03;19.20;99.90
15690;DHT22;7945;48.816;11.506;2023-08-01T04:20:30;19.10;99.90
15690;DHT22;7945;48.816;11.506;2023-08-01T04:22:56;19.10;99.90
15690;DHT22;7945;48.816;11.506;2023-08-01T04:25:24;19.10;99.90
15690;DHT22;7945;48.816;11.506;2023-08-01T04:27:52;19.20;99.90
15690;DHT22;7945;48.816;11.506;2023-08-01T04:30:20;19.20;99.90
15690;DHT22;7945;48.816;11.506;2023-08-01T04:32:47;19.20;99.90
15690;DHT22;7945;48.816;11.506;2023-08-01T04:35:14;19.20;99.90
15690;DHT22;7945;48.816;11.506;2023-08-01T04:37:40;19.10;99.90
15690;DHT22;7945;48.816;11.506;2023-08-01T04:40:08;19.20;99.90
15690;DHT22;7945;48.816;11.506;2023-08-01T04:42:35;19.20;99.90
15690;DHT22;7945;48.816;11.506;2023-08-01T04:45:02;19.20;99.90
15690;DHT22;7945;48.816;11.506;2023-08-01T04:47:30;19.20;99.90
15690;DHT22;7945;48.816;11.506;2023-08-01T04:49:57;19.20;99.90
15690;DHT22;7945;48.816;11.506;2023-08-01T04:52:24;19.20;99.90
15690;DHT22;7945;48.816;11.506;2023-08-01T04:54:50;19.10;99.90
15690;DHT22;7945;48.816;11.506;2023-08-01T04:57:17;19.20;99.90
15690;DHT22;7945;48.816;11.506;2023-08-01T04:59:44;19.20;99.90
15690;DHT22;7945;48.816;11.506;2023-08-01T05:02:10;19.20;99.90
15690;DHT22;7945;48.816;11.506;2023-08-01T05:04:39;19.20;99.90
15690;DHT22;7945;48.816;11.506;2023-08-01T05:07:05;19.20;99.90
15690;DHT22;7945;48.816;11.506;2023-08-01T05:09:32;19.20;99.90
15690;DHT22;7945;48.816;11.506;2023-08-01T05:11:59;19.20;99.90
15690;DHT22;7945;48.816;11.506;2023-08-01T05:14:26;19.20;99.90
15690;DHT22;7945;48.816;11.506;2023-08-01T05:16:52;19.20;99.90
15690;DHT22;7945;48.816;11.506;2023-08-01T05:19:19;19.20;99.90
15690;DHT22;7945;48.816;11.506;2023-08-01T05:21:47;19.20;99.90
15690;DHT22;7945;48.816;11.506;2023-08-01T05:24:14;19.20;99.90
15690;DHT22;7945;48.816;11.506;2023-08-01T05:26:41;19.20;99.90
15690;DHT22;7945;48.816;11.506;2023-08-01T05:29:07;19.20;99.90
15690;DHT22;7945;48.816;11.506;2023-08-01T05:31:34;19.20;99.90
15690;DHT22;7945;48.816;11.506;2023-08-01T05:34:01;19.20;99.90
15690;DHT22;7945;48.816;11.506;2023-08-01T05:36:28;19.20;99.90
15690;DHT22;7945;48.816;11.506;2023-08-01T05:38:56;19.20;99.90
15690;DHT22;7945;48.816;11.506;2023-08-01T05:41:23;19.20;99.90
15690;DHT22;7945;48.816;11.506;2023-08-01T05:43:50;19.30;99.90
15690;DHT22;7945;48.816;11.506;2023-08-01T05:46:17;19.30;99.90
15690;DHT22;7945;48.816;11.506;2023-08-01T05:48:43;19.30;99.90
15690;DHT22;7945;48.816;11.506;2023-08-01T05:51:10;19.30;99.90
15690;DHT22;7945;48.816;11.506;2023-08-01T05:53:37;19.40;99.90
15690;DHT22;7945;48.816;11.506;2023-08-01T05:56:05;19.30;99.90
15690;DHT22;7945;48.816;11.506;2023-08-01T05:58:32;19.30;99.90
15690;DHT22;7945;48.816;11.506;2023-08-01T06:00:59;19.30;99.90
15690;DHT22;7945;48.816;11.506;2023-08-01T06:03:26;19.40;99.90
15690;DHT22;7945;48.816;11.506;2023-08-01T06:05:52;19.30;99.90
15690;DHT22;7945;48.816;11.506;2023-08-01T06:08:19;19.40;99.90
15690;DHT22;7945;48.816;11.506;2023-08-01T06:10:47;19.40;99.90
15690;DHT22;7945;48.816;11.506;2023-08-01T06:15:39;19.40;99.90
15690;DHT22;7945;48.816;11.506;2023-08-01T06:18:05;19.40;99.90
15690;DHT22;7945;48.816;11.506;2023-08-01T06:20:32;19.40;99.90
15690;DHT22;7945;48.816;11.506;2023-08-01T06:22:59;19.50;99.90
15690;DHT22;7945;48.816;11.506;2023-08-01T06:25:26;19.50;99.90
15690;DHT22;7945;48.816;11.506;2023-08-01T06:27:52;19.50;99.90
15690;DHT22;7945;48.816;11.506;2023-08-01T06:30:19;19.60;99.90
15690;DHT22;7945;48.816;11.506;2023-08-01T06:32:47;19.60;99.90
15690;DHT22;7945;48.816;11.506;2023-08-01T06:35:14;19.70;99.90
15690;DHT22;7945;48.816;11.506;2023-08-01T06:37:41;19.70;99.90
15690;DHT22;7945;48.816;11.506;2023-08-01T06:40:09;19.70;99.90
15690;DHT22;7945;48.816;11.506;2023-08-01T06:42:36;19.70;99.90
15690;DHT22;7945;48.816;11.506;2023-08-01T06:45:03;19.60;99.90
15690;DHT22;7945;48.816;11.506;2023-08-01T06:47:29;19.60;99.90
15690;DHT22;7945;48.816;11.506;2023-08-01T06:49:58;19.60;99.90
15690;DHT22;7945;48.816;11.506;2023-08-01T06:52:24;19.60;99.90
15690;DHT22;7945;48.816;11.506;2023-08-01T06:54:51;19.60;99.90
15690;DHT22;7945;48.816;11.506;2023-08-01T06:57:18;19.60;99.90
15690;DHT22;7945;48.816;11.506;2023-08-01T06:59:45;19.70;99.90
15690;DHT22;7945;48.816;11.506;2023-08-01T07:02:11;19.70;99.90
15690;DHT22;7945;48.816;11.506;2023-08-01T07:04:38;19.80;99.90
15690;DHT22;7945;48.816;11.506;2023-08-01T07:07:06;19.90;99.90
15690;DHT22;7945;48.816;11.506;2023-08-01T07:09:34;19.90;99.90
15690;DHT22;7945;48.816;11.506;2023-08-01T07:12:01;19.90;99.90
15690;DHT22;7945;48.816;11.506;2023-08-01T07:14:27;19.90;99.90
15690;DHT22;7945;48.816;11.506;2023-08-01T07:16:54;20.00;99.90
15690;DHT22;7945;48.816;11.506;2023-08-01T07:19:21;20.10;99.90
15690;DHT22;7945;48.816;11.506;2023-08-01T07:21:48;20.10;99.90
15690;DHT22;7945;48.816;11.506;2023-08-01T07:24:16;20.10;99.90
15690;DHT22;7945;48.816;11.506;2023-08-01T07:26:43;20.10;99.90
15690;DHT22;7945;48.816;11.506;2023-08-01T07:29:09;20.20;99.90
15690;DHT22;7945;48.816;11.506;2023-08-01T07:31:37;20.40;99.90
15690;DHT22;7945;48.816;11.506;2023-08-01T07:34:04;20.50;99.90
15690;DHT22;7945;48.816;11.506;2023-08-01T07:36:30;20.70;99.90
15690;DHT22;7945;48.816;11.506;2023-08-01T07:38:57;20.80;99.90
15690;DHT22;7945;48.816;11.506;2023-08-01T07:41:25;21.00;99.90
15690;DHT22;7945;48.816;11.506;2023-08-01T07:43:52;21.10;99.90
15690;DHT22;7945;48.816;11.506;2023-08-01T07:46:19;21.20;99.90
15690;DHT22;7945;48.816;11.506;2023-08-01T07:48:45;21.30;99.90
15690;DHT22;7945;48.816;11.506;2023-08-01T07:51:14;21.20;99.90
15690;DHT22;7945;48.816;11.506;2023-08-01T07:53:41;21.30;99.90
15690;DHT22;7945;48.816;11.506;2023-08-01T07:56:08;21.10;99.90
15690;DHT22;7945;48.816;11.506;2023-08-01T07:58:36;21.10;99.90
15690;DHT22;7945;48.816;11.506;2023-08-01T08:01:03;21.00;99.90
15690;DHT22;7945;48.816;11.506;2023-08-01T08:03:30;20.90;99.90
15690;DHT22;7945;48.816;11.506;2023-08-01T08:05:57;20.80;99.90
15690;DHT22;7945;48.816;11.506;2023-08-01T08:08:24;20.70;99.90
15690;DHT22;7945;48.816;11.506;2023-08-01T08:10:52;20.60;99.90
15690;DHT22;7945;48.816;11.506;2023-08-01T08:13:19;20.60;99.90
15690;DHT22;7945;48.816;11.506;2023-08-01T08:15:47;20.50;99.90
15690;DHT22;7945;48.816;11.506;2023-08-01T08:18:14;20.50;99.90
15690;DHT22;7945;48.816;11.506;2023-08-01T08:20:42;20.40;99.90
15690;DHT22;7945;48.816;11.506;2023-08-01T08:23:09;20.40;99.90
15690;DHT22;7945;48.816;11.506;2023-08-01T08:25:36;20.40;99.90
15690;DHT22;7945;48.816;11.506;2023-08-01T08:28:03;20.30;99.90
15690;DHT22;7945;48.816;11.506;2023-08-01T08:30:30;20.30;99.90
15690;DHT22;7945;48.816;11.506;2023-08-01T08:32:58;20.30;99.90
15690;DHT22;7945;48.816;11.506;2023-08-01T08:35:29;20.30;99.90
15690;DHT22;7945;48.816;11.506;2023-08-01T08:37:57;20.30;99.90
15690;DHT22;7945;48.816;11.506;2023-08-01T08:40:24;20.20;99.90
15690;DHT22;7945;48.816;11.506;2023-08-01T08:42:52;20.20;99.90
15690;DHT22;7945;48.816;11.506;2023-08-01T08:45:19;20.10;99.90
15690;DHT22;7945;48.816;11.506;2023-08-01T08:47:49;20.20;99.90
15690;DHT22;7945;48.816;11.506;2023-08-01T08:50:19;20.10;99.90
15690;DHT22;7945;48.816;11.506;2023-08-01T08:52:46;20.10;99.90
15690;DHT22;7945;48.816;11.506;2023-08-01T08:55:13;20.10;99.90
15690;DHT22;7945;48.816;11.506;2023-08-01T08:57:40;20.10;99.90
15690;DHT22;7945;48.816;11.506;2023-08-01T09:00:11;20.10;99.90
15690;DHT22;7945;48.816;11.506;2023-08-01T09:02:38;20.10;99.90
15690;DHT22;7945;48.816;11.506;2023-08-01T09:05:05;20.10;99.90
15690;DHT22;7945;48.816;11.506;2023-08-01T09:07:33;20.00;99.90
15690;DHT22;7945;48.816;11.506;2023-08-01T09:10:05;20.10;99.90
15690;DHT22;7945;48.816;11.506;2023-08-01T09:12:34;20.10;99.90
15690;DHT22;7945;48.816;11.506;2023-08-01T09:15:01;20.00;99.90
15690;DHT22;7945;48.816;11.506;2023-08-01T09:17:28;20.00;99.90
15690;DHT22;7945;48.816;11.506;2023-08-01T09:19:55;19.90;99.90
15690;DHT22;7945;48.816;11.506;2023-08-01T09:22:23;19.80;99.90
15690;DHT22;7945;48.816;11.506;2023-08-01T09:24:54;19.60;99.90
15690;DHT22;7945;48.816;11.506;2023-08-01T09:27:21;19.60;99.90
15690;DHT22;7945;48.816;11.506;2023-08-01T09:29:49;19.50;99.90
15690;DHT22;7945;48.816;11.506;2023-08-01T09:32:15;19.40;99.90
15690;DHT22;7945;48.816;11.506;2023-08-01T09:34:43;19.40;99.90
15690;DHT22;7945;48.816;11.506;2023-08-01T09:37:10;19.40;99.90
15690;DHT22;7945;48.816;11.506;2023-08-01T09:39:36;19.40;99.90
15690;DHT22;7945;48.816;11.506;2023-08-01T09:42:05;19.40;99.90
15690;DHT22;7945;48.816;11.506;2023-08-01T09:44:35;19.50;99.90
15690;DHT22;7945;48.816;11.506;2023-08-01T09:47:04;19.60;99.90
15690;DHT22;7945;48.816;11.506;2023-08-01T09:49:32;19.60;99.90
15690;DHT22;7945;48.816;11.506;2023-08-01T09:51:59;19.60;99.90
15690;DHT22;7945;48.816;11.506;2023-08-01T09:54:27;19.50;99.90
15690;DHT22;7945;48.816;11.506;2023-08-01T09:56:54;19.50;99.90
15690;DHT22;7945;48.816;11.506;2023-08-01T09:59:24;19.50;99.90
15690;DHT22;7945;48.816;11.506;2023-08-01T10:01:52;19.50;99.90
15690;DHT22;7945;48.816;11.506;2023-08-01T10:04:21;19.40;99.90
15690;DHT22;7945;48.816;11.506;2023-08-01T10:06:53;19.30;99.90
15690;DHT22;7945;48.816;11.506;2023-08-01T10:09:21;19.20;99.90
15690;DHT22;7945;48.816;11.506;2023-08-01T10:11:49;19.00;99.90
15690;DHT22;7945;48.816;11.506;2023-08-01T10:14:17;19.00;99.90
15690;DHT22;7945;48.816;11.506;2023-08-01T10:16:47;18.80;99.90
15690;DHT22;7945;48.816;11.506;2023-08-01T10:19:14;18.70;99.90
15690;DHT22;7945;48.816;11.506;2023-08-01T10:21:41;18.70;99.90
15690;DHT22;7945;48.816;11.506;2023-08-01T10:24:08;18.70;99.90
15690;DHT22;7945;48.816;11.506;2023-08-01T10:26:36;18.60;99.90
15690;DHT22;7945;48.816;11.506;2023-08-01T10:29:02;18.60;99.90
15690;DHT22;7945;48.816;11.506;2023-08-01T10:31:29;18.70;99.90
15690;DHT22;7945;48.816;11.506;2023-08-01T10:34:05;18.70;99.90
15690;DHT22;7945;48.816;11.506;2023-08-01T10:36:32;18.70;99.90
15690;DHT22;7945;48.816;11.506;2023-08-01T10:39:01;18.70;99.90
15690;DHT22;7945;48.816;11.506;2023-08-01T10:41:29;18.80;99.90
15690;DHT22;7945;48.816;11.506;2023-08-01T10:44:07;18.90;99.90
15690;DHT22;7945;48.816;11.506;2023-08-01T10:46:47;19.00;99.90
15690;DHT22;7945;48.816;11.506;2023-08-01T10:49:16;19.00;99.90
15690;DHT22;7945;48.816;11.506;2023-08-01T10:51:44;19.10;99.90
15690;DHT22;7945;48.816;11.506;2023-08-01T10:54:20;19.10;99.90
15690;DHT22;7945;48.816;11.506;2023-08-01T10:56:48;19.20;99.90
15690;DHT22;7945;48.816;11.506;2023-08-01T10:59:16;19.20;99.90
15690;DHT22;7945;48.816;11.506;2023-08-01T11:01:48;19.20;99.90
15690;DHT22;7945;48.816;11.506;2023-08-01T11:04:17;19.20;99.90
15690;DHT22;7945;48.816;11.506;2023-08-01T11:06:45;19.20;99.90
15690;DHT22;7945;48.816;11.506;2023-08-01T11:09:16;19.20;99.90
15690;DHT22;7945;48.816;11.506;2023-08-01T11:11:44;19.20;99.90
15690;DHT22;7945;48.816;11.506;2023-08-01T11:14:11;19.30;99.90
15690;DHT22;7945;48.816;11.506;2023-08-01T11:16:39;19.30;99.90
15690;DHT22;7945;48.816;11.506;2023-08-01T11:19:16;19.20;99.90
15690;DHT22;7945;48.816;11.506;2023-08-01T11:21:45;19.10;99.90
15690;DHT22;7945;48.816;11.506;2023-08-01T11:24:12;19.10;99.90
15690;DHT22;7945;48.816;11.506;2023-08-01T11:26:41;19.20;99.90
15690;DHT22;7945;48.816;11.506;2023-08-01T11:29:08;19.10;99.90
15690;DHT22;7945;48.816;11.506;2023-08-01T11:31:35;19.20;99.90
15690;DHT22;7945;48.816;11.506;2023-08-01T11:34:02;19.20;99.90
15690;DHT22;7945;48.816;11.506;2023-08-01T11:36:30;19.20;99.90
15690;DHT22;7945;48.816;11.506;2023-08-01T11:38:59;19.30;99.90
15690;DHT22;7945;48.816;11.506;2023-08-01T11:41:27;19.40;99.90
15690;DHT22;7945;48.816;11.506;2023-08-01T11:43:54;19.40;99.90
15690;DHT22;7945;48.816;11.506;2023-08-01T11:46:21;19.40;99.90
15690;DHT22;7945;48.816;11.506;2023-08-01T11:48:48;19.50;99.90
15690;DHT22;7945;48.816;11.506;2023-08-01T11:51:16;19.50;99.90
15690;DHT22;7945;48.816;11.506;2023-08-01T11:53:43;19.40;99.90
15690;DHT22;7945;48.816;11.506;2023-08-01T11:56:19;19.40;99.90
15690;DHT22;7945;48.816;11.506;2023-08-01T11:58:46;19.30;99.90
15690;DHT22;7945;48.816;11.506;2023-08-01T12:01:13;19.20;99.90
15690;DHT22;7945;48.816;11.506;2023-08-01T12:03:44;19.20;99.90
15690;DHT22;7945;48.816;11.506;2023-08-01T12:06:11;19.20;99.90
15690;DHT22;7945;48.816;11.506;2023-08-01T12:08:39;19.30;99.90
15690;DHT22;7945;48.816;11.506;2023-08-01T12:11:18;19.20;99.90
15690;DHT22;7945;48.816;11.506;2023-08-01T12:13:46;19.20;99.90
15690;DHT22;7945;48.816;11.506;2023-08-01T12:16:12;19.10;99.90
15690;DHT22;7945;48.816;11.506;2023-08-01T12:18:41;19.00;99.90
15690;DHT22;7945;48.816;11.506;2023-08-01T12:21:10;19.00;99.90
15690;DHT22;7945;48.816;11.506;2023-08-01T12:23:37;19.00;99.90
15690;DHT22;7945;48.816;11.506;2023-08-01T12:26:03;19.00;99.90
15690;DHT22;7945;48.816;11.506;2023-08-01T12:28:32;19.00;99.90
15690;DHT22;7945;48.816;11.506;2023-08-01T12:30:58;19.10;99.90
15690;DHT22;7945;48.816;11.506;2023-08-01T12:33:25;19.20;99.90
15690;DHT22;7945;48.816;11.506;2023-08-01T12:35:52;19.20;99.90
15690;DHT22;7945;48.816;11.506;2023-08-01T12:38:19;19.40;99.90
15690;DHT22;7945;48.816;11.506;2023-08-01T12:40:45;19.50;99.90
15690;DHT22;7945;48.816;11.506;2023-08-01T12:43:13;19.60;99.90
15690;DHT22;7945;48.816;11.506;2023-08-01T12:45:41;19.60;99.90
15690;DHT22;7945;48.816;11.506;2023-08-01T12:48:08;19.70;99.90
15690;DHT22;7945;48.816;11.506;2023-08-01T12:50:35;19.70;99.90
15690;DHT22;7945;48.816;11.506;2023-08-01T12:53:02;19.70;99.90
15690;DHT22;7945;48.816;11.506;2023-08-01T12:55:28;19.80;99.90
15690;DHT22;7945;48.816;11.506;2023-08-01T12:57:55;20.00;99.90
15690;DHT22;7945;48.816;11.506;2023-08-01T13:00:22;20.10;99.90
15690;DHT22;7945;48.816;11.506;2023-08-01T13:02:50;20.10;99.90
15690;DHT22;7945;48.816;11.506;2023-08-01T13:05:17;20.10;99.90
15690;DHT22;7945;48.816;11.506;2023-08-01T13:07:44;20.00;99.90
15690;DHT22;7945;48.816;11.506;2023-08-01T13:10:11;20.00;99.90
15690;DHT22;7945;48.816;11.506;2023-08-01T13:12:38;20.10;99.90
15690;DHT22;7945;48.816;11.506;2023-08-01T13:15:05;20.20;99.90
15690;DHT22;7945;48.816;11.506;2023-08-01T13:17:32;20.10;99.90
15690;DHT22;7945;48.816;11.506;2023-08-01T13:20:01;20.10;99.90
15690;DHT22;7945;48.816;11.506;2023-08-01T13:22:29;20.10;99.90
15690;DHT22;7945;48.816;11.506;2023-08-01T13:24:55;20.20;99.90
15690;DHT22;7945;48.816;11.506;2023-08-01T13:27:23;20.30;99.90
15690;DHT22;7945;48.816;11.506;2023-08-01T13:29:49;20.50;99.90
15690;DHT22;7945;48.816;11.506;2023-08-01T13:32:19;20.60;99.90
15690;DHT22;7945;48.816;11.506;2023-08-01T13:34:46;20.60;99.90
15690;DHT22;7945;48.816;11.506;2023-08-01T13:37:14;20.70;99.90
15690;DHT22;7945;48.816;11.506;2023-08-01T13:39:41;20.80;99.90
15690;DHT22;7945;48.816;11.506;2023-08-01T13:42:08;20.80;99.90
15690;DHT22;7945;48.816;11.506;2023-08-01T13:44:35;21.10;99.90
15690;DHT22;7945;48.816;11.506;2023-08-01T13:47:02;20.90;99.90
15690;DHT22;7945;48.816;11.506;2023-08-01T13:49:30;20.90;99.90
15690;DHT22;7945;48.816;11.506;2023-08-01T13:51:56;20.80;99.90
15690;DHT22;7945;48.816;11.506;2023-08-01T13:54:25;21.00;99.90
15690;DHT22;7945;48.816;11.506;2023-08-01T13:56:52;21.10;99.90
15690;DHT22;7945;48.816;11.506;2023-08-01T13:59:19;21.20;99.90
15690;DHT22;7945;48.816;11.506;2023-08-01T14:01:46;21.20;99.90
15690;DHT22;7945;48.816;11.506;2023-08-01T14:04:12;21.40;99.90
15690;DHT22;7945;48.816;11.506;2023-08-01T14:06:40;21.40;99.90
15690;DHT22;7945;48.816;11.506;2023-08-01T14:09:07;21.50;99.90
15690;DHT22;7945;48.816;11.506;2023-08-01T14:11:35;21.60;99.90
15690;DHT22;7945;48.816;11.506;2023-08-01T14:14:02;21.70;99.90
15690;DHT22;7945;48.816;11.506;2023-08-01T14:16:30;21.70;99.90
15690;DHT22;7945;48.816;11.506;2023-08-01T14:18:57;21.70;99.90
15690;DHT22;7945;48.816;11.506;2023-08-01T14:21:24;21.70;99.90
15690;DHT22;7945;48.816;11.506;2023-08-01T14:23:51;21.60;99.90
15690;DHT22;7945;48.816;11.506;2023-08-01T14:26:18;21.60;99.90
15690;DHT22;7945;48.816;11.506;2023-08-01T14:28:46;21.80;99.90
15690;DHT22;7945;48.816;11.506;2023-08-01T14:31:13;21.90;99.90
15690;DHT22;7945;48.816;11.506;2023-08-01T14:33:40;22.00;99.90
15690;DHT22;7945;48.816;11.506;2023-08-01T14:36:08;22.00;99.90
15690;DHT22;7945;48.816;11.506;2023-08-01T14:38:37;22.00;99.90
15690;DHT22;7945;48.816;11.506;2023-08-01T14:41:04;22.00;99.90
15690;DHT22;7945;48.816;11.506;2023-08-01T14:43:31;22.10;99.90
15690;DHT22;7945;48.816;11.506;2023-08-01T14:46:00;22.20;99.90
15690;DHT22;7945;48.816;11.506;2023-08-01T14:48:26;22.30;99.90
15690;DHT22;7945;48.816;11.506;2023-08-01T14:50:53;22.40;99.90
15690;DHT22;7945;48.816;11.506;2023-08-01T14:53:20;22.50;98.90
15690;DHT22;7945;48.816;11.506;2023-08-01T14:55:56;22.60;98.10
15690;DHT22;7945;48.816;11.506;2023-08-01T14:58:23;22.70;95.30
15690;DHT22;7945;48.816;11.506;2023-08-01T15:00:49;22.60;96.10
15690;DHT22;7945;48.816;11.506;2023-08-01T15:03:17;22.60;95.50
15690;DHT22;7945;48.816;11.506;2023-08-01T15:05:45;22.60;94.80
15690;DHT22;7945;48.816;11.506;2023-08-01T15:08:12;22.60;94.70
15690;DHT22;7945;48.816;11.506;2023-08-01T15:10:39;22.50;94.20
15690;DHT22;7945;48.816;11.506;2023-08-01T15:13:05;22.50;93.80
15690;DHT22;7945;48.816;11.506;2023-08-01T15:15:35;22.40;93.20
15690;DHT22;7945;48.816;11.506;2023-08-01T15:18:02;22.40;93.30
15690;DHT22;7945;48.816;11.506;2023-08-01T15:20:31;22.30;93.80
15690;DHT22;7945;48.816;11.506;2023-08-01T15:23:00;22.70;94.10
15690;DHT22;7945;48.816;11.506;2023-08-01T15:25:27;22.50;93.40
15690;DHT22;7945;48.816;11.506;2023-08-01T15:27:54;22.50;93.30
15690;DHT22;7945;48.816;11.506;2023-08-01T15:30:21;22.40;93.00
15690;DHT22;7945;48.816;11.506;2023-08-01T15:32:48;22.30;93.10